Mathews, Alabama
Current Conditions -  °F | °C
As of 6:38 AM on Monday 24 Nov 2014 (Local Time) from KMXF Reporting Station
Haze Haze  
Wind Chill: 59°   Ceiling: 700
Heat Index: 59°   Visibility: 0.75mi
Dew Point: 59°   Wind: 1mph
Humidity: 100%   Direction: 340°NNW
Pressure: 29.78"   Gusts: NA
Location:  32.27°N, 86°W
Report Text: KMXF 241238Z AUTO 34001KT 3/4SM R15/3500FT BR OVC007 15/15 A2978 RMK AO2 VIS 1/4V3/4 OVC V BKN
Loading
Personal Weather Stations






























Interactive Weather Map New forecast layout! Learn more

10-Day Weather Forecast

Advertisements
Track Severe Weather on mobile